createdAt,value
2017-05-27T00:01:00.297Z,0
2017-05-27T00:02:10.575Z,0
2017-05-27T00:03:20.550Z,0
2017-05-27T00:04:31.153Z,0
2017-05-27T00:05:41.429Z,0
2017-05-27T00:06:51.713Z,0
2017-05-27T00:08:01.694Z,0
2017-05-27T00:09:11.979Z,0
2017-05-27T00:10:22.517Z,0
2017-05-27T00:11:32.787Z,0
2017-05-27T00:12:42.760Z,0
2017-05-27T00:13:53.048Z,0
2017-05-27T00:15:03.023Z,0
2017-05-27T00:16:13.561Z,0
2017-05-27T00:17:23.836Z,0
2017-05-27T00:18:33.805Z,0
2017-05-27T00:19:43.776Z,0
2017-05-27T00:20:54.068Z,0
2017-05-27T00:22:04.603Z,0
2017-05-27T00:23:14.565Z,0
2017-05-27T00:24:24.850Z,0
2017-05-27T00:25:34.507Z,0
2017-05-27T00:26:44.793Z,0
2017-05-27T00:27:55.353Z,0
2017-05-27T00:29:05.635Z,0
2017-05-27T00:30:15.611Z,0
2017-05-27T00:31:25.901Z,0
2017-05-27T00:32:35.622Z,0
2017-05-27T00:33:46.158Z,0
2017-05-27T00:34:56.440Z,0
2017-05-27T00:36:06.726Z,0
2017-05-27T00:37:16.686Z,0
2017-05-27T00:38:27.028Z,0
2017-05-27T00:39:37.247Z,0
2017-05-27T00:40:47.527Z,0
2017-05-27T00:41:57.803Z,0
2017-05-27T00:43:07.787Z,0
2017-05-27T00:44:18.065Z,0
2017-05-27T00:45:28.609Z,0
2017-05-27T00:46:38.576Z,0
2017-05-27T00:47:48.552Z,0
2017-05-27T00:48:58.210Z,0
2017-05-27T00:50:08.501Z,0
2017-05-27T00:51:19.035Z,0
2017-05-27T00:52:29.311Z,0
2017-05-27T00:53:39.599Z,0
2017-05-27T00:54:49.882Z,0
2017-05-27T00:55:59.863Z,0
2017-05-27T00:57:10.403Z,0
2017-05-27T00:58:20.682Z,0
2017-05-27T00:59:30.969Z,0
2017-05-27T01:00:40.948Z,0
2017-05-27T01:01:51.219Z,0
2017-05-27T01:03:01.752Z,0
2017-05-27T01:04:12.030Z,0
2017-05-27T01:05:22.311Z,0
2017-05-27T01:06:32.586Z,0
2017-05-27T01:07:42.568Z,0
2017-05-27T01:08:52.792Z,0
2017-05-27T01:10:03.086Z,0
2017-05-27T01:11:13.056Z,0
2017-05-27T01:12:23.352Z,0
2017-05-27T01:13:33.333Z,0
2017-05-27T01:14:43.858Z,0
2017-05-27T01:15:53.823Z,0
2017-05-27T01:17:04.106Z,0
2017-05-27T01:18:14.386Z,0
2017-05-27T01:19:24.722Z,0
2017-05-27T01:20:34.963Z,0
2017-05-27T01:21:45.244Z,0
2017-05-27T01:22:55.533Z,0
2017-05-27T01:24:05.811Z,0
2017-05-27T01:25:16.102Z,0
2017-05-27T01:26:26.633Z,0
2017-05-27T01:27:36.916Z,0
2017-05-27T01:28:47.210Z,0
2017-05-27T01:29:57.503Z,0
2017-05-27T01:31:07.476Z,0
2017-05-27T01:32:17.074Z,0
2017-05-27T01:33:27.043Z,0
2017-05-27T01:34:37.009Z,0
2017-05-27T01:35:46.984Z,0
2017-05-27T01:36:57.270Z,0
2017-05-27T01:38:07.811Z,0
2017-05-27T01:39:17.777Z,0
2017-05-27T01:40:28.067Z,0
2017-05-27T01:41:38.027Z,0
2017-05-27T01:42:48.308Z,0
2017-05-27T01:43:58.839Z,0
2017-05-27T01:45:08.794Z,0
2017-05-27T01:46:19.077Z,0
2017-05-27T01:47:29.363Z,0
2017-05-27T01:48:39.338Z,0
2017-05-27T01:49:49.581Z,0
2017-05-27T01:50:59.859Z,0
2017-05-27T01:52:10.133Z,0
2017-05-27T01:53:20.110Z,0
2017-05-27T01:54:30.392Z,0
2017-05-27T01:55:40.683Z,0
2017-05-27T01:56:50.335Z,0
2017-05-27T01:58:00.612Z,0
2017-05-27T01:59:10.899Z,0
2017-05-27T02:00:20.861Z,0
2017-05-27T02:01:31.141Z,0
2017-05-27T02:02:41.100Z,0
2017-05-27T02:03:51.383Z,0
2017-05-27T02:05:01.718Z,0
2017-05-27T02:06:11.366Z,0
2017-05-27T02:07:21.285Z,0
2017-05-27T02:08:31.565Z,0
2017-05-27T02:09:41.859Z,0
2017-05-27T02:10:52.216Z,0
2017-05-27T02:12:02.499Z,0
2017-05-27T02:13:13.031Z,0
2017-05-27T02:14:23.004Z,0
2017-05-27T02:15:32.969Z,0
2017-05-27T02:16:42.931Z,0
2017-05-27T02:17:53.216Z,0
2017-05-27T02:19:03.763Z,0
2017-05-27T02:20:14.040Z,0
2017-05-27T02:21:24.373Z,0
2017-05-27T02:22:34.655Z,0
2017-05-27T02:23:44.621Z,0
2017-05-27T02:24:54.839Z,0
2017-05-27T02:26:05.139Z,0
2017-05-27T02:27:15.108Z,0
2017-05-27T02:28:25.077Z,0
2017-05-27T02:29:35.356Z,0
2017-05-27T02:30:45.563Z,0
2017-05-27T02:31:55.845Z,0
2017-05-27T02:33:06.122Z,0
2017-05-27T02:34:16.398Z,0
2017-05-27T02:35:26.674Z,0
2017-05-27T02:36:36.585Z,0
2017-05-27T02:37:46.557Z,0
2017-05-27T02:38:56.846Z,0
2017-05-27T02:40:07.118Z,4
2017-05-27T02:41:17.390Z,4
2017-05-27T02:42:27.927Z,0
2017-05-27T02:43:38.256Z,0
2017-05-27T02:44:48.531Z,0
2017-05-27T02:45:58.801Z,0
2017-05-27T02:47:08.779Z,4
2017-05-27T02:48:18.996Z,4
2017-05-27T02:49:28.905Z,4
2017-05-27T02:50:38.880Z,0
2017-05-27T02:51:48.894Z,0
2017-05-27T02:52:58.870Z,4
2017-05-27T02:54:09.101Z,4
2017-05-27T02:55:19.474Z,4
2017-05-27T02:56:29.757Z,4
2017-05-27T02:57:40.037Z,4
2017-05-27T02:58:50.324Z,8
2017-05-27T03:00:00.910Z,4
2017-05-27T03:01:11.189Z,8
2017-05-27T03:02:21.473Z,8
2017-05-27T03:03:31.752Z,8
2017-05-27T03:04:42.034Z,16
2017-05-27T03:05:52.560Z,16
2017-05-27T03:07:02.528Z,20
2017-05-27T03:08:12.805Z,24
2017-05-27T03:09:23.110Z,32
2017-05-27T03:10:33.398Z,36
2017-05-27T03:11:43.982Z,36
2017-05-27T03:12:53.953Z,40
2017-05-27T03:14:03.928Z,40
2017-05-27T03:15:14.207Z,48
2017-05-27T03:16:24.171Z,56
2017-05-27T03:17:34.704Z,68
2017-05-27T03:18:44.673Z,72
2017-05-27T03:19:54.950Z,80
2017-05-27T03:21:04.912Z,88
2017-05-27T03:22:15.183Z,96
2017-05-27T03:23:25.715Z,104
2017-05-27T03:24:36.000Z,112
2017-05-27T03:25:46.281Z,120
2017-05-27T03:26:56.246Z,128
2017-05-27T03:28:06.533Z,132
2017-05-27T03:29:17.065Z,124
2017-05-27T03:30:27.036Z,120
2017-05-27T03:31:36.999Z,108
2017-05-27T03:32:47.284Z,88
2017-05-27T03:33:57.571Z,80
2017-05-27T03:35:07.786Z,84
2017-05-27T03:36:18.071Z,76
2017-05-27T03:37:28.344Z,76
2017-05-27T03:38:38.005Z,64
2017-05-27T03:39:47.967Z,56
2017-05-27T03:40:58.200Z,52
2017-05-27T03:42:08.169Z,52
2017-05-27T03:43:18.138Z,56
2017-05-27T03:44:28.422Z,60
2017-05-27T03:45:38.708Z,64
2017-05-27T03:46:48.614Z,64
2017-05-27T03:47:58.895Z,64
2017-05-27T03:49:09.179Z,60
2017-05-27T03:50:19.465Z,56
2017-05-27T03:51:29.440Z,52
2017-05-27T03:52:39.653Z,56
2017-05-27T03:53:49.630Z,56
2017-05-27T03:54:59.908Z,64
2017-05-27T03:56:10.217Z,92
2017-05-27T03:57:20.506Z,120
2017-05-27T03:58:30.722Z,140
2017-05-27T03:59:40.700Z,148
2017-05-27T04:00:50.997Z,144
2017-05-27T04:02:01.290Z,132
2017-05-27T04:03:11.582Z,136
2017-05-27T04:04:22.116Z,124
2017-05-27T04:05:32.397Z,104
2017-05-27T04:06:42.715Z,88
2017-05-27T04:07:52.694Z,76
2017-05-27T04:09:02.445Z,76
2017-05-27T04:10:12.976Z,80
2017-05-27T04:11:23.260Z,80
2017-05-27T04:12:33.545Z,80
2017-05-27T04:13:43.827Z,80
2017-05-27T04:14:54.111Z,80
2017-05-27T04:16:04.330Z,80
2017-05-27T04:17:14.606Z,88
2017-05-27T04:18:24.578Z,96
2017-05-27T04:19:34.868Z,132
2017-05-27T04:20:44.846Z,176
2017-05-27T04:21:55.064Z,196
2017-05-27T04:23:05.397Z,216
2017-05-27T04:24:15.685Z,220
2017-05-27T04:25:25.972Z,224
2017-05-27T04:26:36.248Z,224
2017-05-27T04:27:46.473Z,220
2017-05-27T04:28:56.511Z,220
2017-05-27T04:30:06.479Z,216
2017-05-27T04:31:16.763Z,212
2017-05-27T04:32:26.738Z,208
2017-05-27T04:33:37.674Z,208
2017-05-27T04:34:47.644Z,204
2017-05-27T04:35:57.301Z,200
2017-05-27T04:37:07.588Z,200
2017-05-27T04:38:17.866Z,200
2017-05-27T04:39:28.396Z,196
2017-05-27T04:40:38.687Z,192
2017-05-27T04:41:48.967Z,192
2017-05-27T04:42:58.644Z,188
2017-05-27T04:44:08.614Z,188
2017-05-27T04:45:19.148Z,184
2017-05-27T04:46:29.128Z,180
2017-05-27T04:47:39.424Z,176
2017-05-27T04:48:49.393Z,172
2017-05-27T04:49:59.674Z,172
2017-05-27T04:51:10.218Z,172
2017-05-27T04:52:20.501Z,168
2017-05-27T04:53:30.785Z,172
2017-05-27T04:54:41.063Z,168
2017-05-27T04:55:51.040Z,168
2017-05-27T04:57:01.284Z,168
2017-05-27T04:58:11.583Z,168
2017-05-27T04:59:21.553Z,168
2017-05-27T05:00:31.524Z,168
2017-05-27T05:01:41.805Z,168
2017-05-27T05:02:52.331Z,168
2017-05-27T05:04:02.605Z,164
2017-05-27T05:05:12.579Z,164
2017-05-27T05:06:22.873Z,164
2017-05-27T05:07:33.164Z,164
2017-05-27T05:08:43.742Z,164
2017-05-27T05:09:54.033Z,164
2017-05-27T05:11:04.308Z,160
2017-05-27T05:12:14.582Z,160
2017-05-27T05:13:24.859Z,160
2017-05-27T05:14:35.106Z,164
2017-05-27T05:15:45.394Z,160
2017-05-27T05:16:55.686Z,160
2017-05-27T05:18:05.980Z,156
2017-05-27T05:19:16.268Z,160
2017-05-27T05:20:26.852Z,160
2017-05-27T05:21:37.127Z,156
2017-05-27T05:22:47.403Z,156
2017-05-27T05:23:57.373Z,156
2017-05-27T05:25:07.652Z,156
2017-05-27T05:26:17.880Z,156
2017-05-27T05:27:27.854Z,156
2017-05-27T05:28:38.143Z,156
2017-05-27T05:29:48.428Z,152
2017-05-27T05:30:58.727Z,152
2017-05-27T05:32:08.634Z,152
2017-05-27T05:33:18.919Z,152
2017-05-27T05:34:28.587Z,148
2017-05-27T05:35:37.940Z,148
2017-05-27T05:36:48.219Z,152
2017-05-27T05:37:58.919Z,148
2017-05-27T05:39:08.885Z,148
2017-05-27T05:40:19.160Z,148
2017-05-27T05:41:29.447Z,148
2017-05-27T05:42:39.735Z,144
2017-05-27T05:43:49.960Z,144
2017-05-27T05:44:59.927Z,144
2017-05-27T05:46:10.206Z,144
2017-05-27T05:47:20.492Z,140
2017-05-27T05:48:30.474Z,144
2017-05-27T05:49:41.010Z,140
2017-05-27T05:50:51.302Z,140
2017-05-27T05:52:01.274Z,140
2017-05-27T05:53:10.954Z,140
2017-05-27T05:54:21.235Z,140
2017-05-27T05:55:31.463Z,140
2017-05-27T05:56:41.748Z,140
2017-05-27T05:57:52.043Z,136
2017-05-27T05:59:02.335Z,140
2017-05-27T06:00:12.000Z,136
2017-05-27T06:01:22.237Z,136
2017-05-27T06:02:32.534Z,136
2017-05-27T06:03:42.815Z,132
2017-05-27T06:04:52.794Z,132
2017-05-27T06:06:03.071Z,128
2017-05-27T06:07:13.605Z,128
2017-05-27T06:08:23.939Z,128
2017-05-27T06:09:34.217Z,128
2017-05-27T06:10:44.202Z,124
2017-05-27T06:11:54.486Z,128
2017-05-27T06:13:04.722Z,124
2017-05-27T06:14:15.003Z,124
2017-05-27T06:15:25.295Z,124
2017-05-27T06:16:35.576Z,120
2017-05-27T06:17:45.546Z,120
2017-05-27T06:18:55.763Z,116
2017-05-27T06:20:05.740Z,120
2017-05-27T06:21:15.710Z,116
2017-05-27T06:22:26.001Z,116
2017-05-27T06:23:35.975Z,116
2017-05-27T06:24:46.205Z,116
2017-05-27T06:25:56.178Z,112
2017-05-27T06:27:06.462Z,112
2017-05-27T06:28:16.751Z,108
2017-05-27T06:29:27.060Z,112
2017-05-27T06:30:36.963Z,108
2017-05-27T06:31:47.244Z,108
2017-05-27T06:32:57.528Z,108
2017-05-27T06:34:08.461Z,108
2017-05-27T06:35:18.749Z,108
2017-05-27T06:36:29.281Z,104
2017-05-27T06:37:39.251Z,108
2017-05-27T06:38:49.550Z,104
2017-05-27T06:39:59.211Z,104
2017-05-27T06:41:09.524Z,100
2017-05-27T06:42:20.066Z,104
2017-05-27T06:43:30.356Z,100
2017-05-27T06:44:40.320Z,100
2017-05-27T06:45:50.604Z,100
2017-05-27T06:47:00.890Z,100
2017-05-27T06:48:11.422Z,96
2017-05-27T06:49:21.085Z,100
2017-05-27T06:50:31.050Z,96
2017-05-27T06:51:41.023Z,96
2017-05-27T06:52:51.310Z,96
2017-05-27T06:54:01.850Z,96
2017-05-27T06:55:11.915Z,96
2017-05-27T06:56:21.913Z,92
2017-05-27T06:57:32.199Z,92
2017-05-27T06:58:42.173Z,92
2017-05-27T06:59:52.715Z,96
2017-05-27T07:01:02.691Z,92
2017-05-27T07:02:12.993Z,92
2017-05-27T07:03:23.277Z,92
2017-05-27T07:04:33.572Z,88
2017-05-27T07:05:43.795Z,88
2017-05-27T07:06:53.766Z,92
2017-05-27T07:08:03.804Z,88
2017-05-27T07:09:14.137Z,88
2017-05-27T07:10:24.423Z,88
2017-05-27T07:11:34.963Z,88
2017-05-27T07:12:44.998Z,84
2017-05-27T07:13:55.332Z,84
2017-05-27T07:15:05.616Z,84
2017-05-27T07:16:15.966Z,84
2017-05-27T07:17:26.504Z,84
2017-05-27T07:18:36.790Z,84
2017-05-27T07:19:46.763Z,84
2017-05-27T07:20:57.068Z,84
2017-05-27T07:22:07.353Z,84
2017-05-27T07:23:17.900Z,84
2017-05-27T07:24:28.188Z,80
2017-05-27T07:25:38.467Z,76
2017-05-27T07:26:48.754Z,72
2017-05-27T07:27:58.722Z,72
2017-05-27T07:29:08.945Z,80
2017-05-27T07:30:19.231Z,76
2017-05-27T07:31:29.522Z,80
2017-05-27T07:32:39.906Z,84
2017-05-27T07:33:50.197Z,80
2017-05-27T07:35:00.730Z,80
2017-05-27T07:36:11.024Z,80
2017-05-27T07:37:21.329Z,80
2017-05-27T07:38:31.305Z,80
2017-05-27T07:39:41.595Z,80
2017-05-27T07:40:51.518Z,80
2017-05-27T07:42:01.807Z,80
2017-05-27T07:43:12.102Z,80
2017-05-27T07:44:21.769Z,80
2017-05-27T07:45:31.763Z,80
2017-05-27T07:46:42.039Z,80
2017-05-27T07:47:52.572Z,80
2017-05-27T07:49:02.849Z,80
2017-05-27T07:50:13.128Z,80
2017-05-27T07:51:23.107Z,76
2017-05-27T07:52:33.634Z,76
2017-05-27T07:53:43.605Z,76
2017-05-27T07:54:53.879Z,76
2017-05-27T07:56:04.164Z,80
2017-05-27T07:57:14.146Z,76
2017-05-27T07:58:24.688Z,80
2017-05-27T07:59:34.998Z,76
2017-05-27T08:00:44.356Z,76
2017-05-27T08:01:54.330Z,76
2017-05-27T08:03:04.301Z,76
2017-05-27T08:04:14.835Z,76
2017-05-27T08:05:25.116Z,76
2017-05-27T08:06:35.100Z,80
2017-05-27T08:07:45.386Z,76
2017-05-27T08:08:55.690Z,76
2017-05-27T08:10:06.238Z,76
2017-05-27T08:11:16.519Z,76
2017-05-27T08:12:26.505Z,76
2017-05-27T08:13:36.527Z,76
2017-05-27T08:14:46.819Z,76
2017-05-27T08:15:57.045Z,76
2017-05-27T08:17:07.423Z,76
2017-05-27T08:18:17.713Z,76
2017-05-27T08:19:27.689Z,76
2017-05-27T08:20:37.664Z,76
2017-05-27T08:21:48.217Z,76
2017-05-27T08:22:58.514Z,76
2017-05-27T08:24:08.180Z,76
2017-05-27T08:25:18.467Z,76
2017-05-27T08:26:28.443Z,76
2017-05-27T08:27:39.011Z,76
2017-05-27T08:28:49.311Z,76
2017-05-27T08:29:59.281Z,76
2017-05-27T08:31:09.576Z,76
2017-05-27T08:32:19.863Z,76
2017-05-27T08:33:30.415Z,76
2017-05-27T08:34:40.698Z,76
2017-05-27T08:35:50.669Z,76
2017-05-27T08:37:00.956Z,80
2017-05-27T08:38:10.932Z,76
2017-05-27T08:39:21.466Z,76
2017-05-27T08:40:31.446Z,76
2017-05-27T08:41:41.416Z,76
2017-05-27T08:42:51.709Z,76
2017-05-27T08:44:01.994Z,76
2017-05-27T08:45:12.219Z,76
2017-05-27T08:46:22.201Z,76
2017-05-27T08:47:32.497Z,76
2017-05-27T08:48:42.807Z,76
2017-05-27T08:49:52.780Z,76
2017-05-27T08:51:03.327Z,76
2017-05-27T08:52:13.609Z,76
2017-05-27T08:53:23.270Z,76
2017-05-27T08:54:33.247Z,76
2017-05-27T08:55:42.908Z,76
2017-05-27T08:56:53.461Z,76
2017-05-27T08:58:03.122Z,76
2017-05-27T08:59:13.092Z,76
2017-05-27T09:00:23.393Z,76
2017-05-27T09:01:33.678Z,76
2017-05-27T09:02:43.598Z,76
2017-05-27T09:03:53.567Z,76
2017-05-27T09:05:03.867Z,76
2017-05-27T09:06:14.171Z,80
2017-05-27T09:07:24.147Z,76
2017-05-27T09:08:34.686Z,76
2017-05-27T09:09:44.665Z,76
2017-05-27T09:10:54.646Z,76
2017-05-27T09:12:04.626Z,76
2017-05-27T09:13:14.600Z,76
2017-05-27T09:14:24.826Z,76
2017-05-27T09:15:35.122Z,76
2017-05-27T09:16:45.407Z,72
2017-05-27T09:17:55.701Z,76
2017-05-27T09:19:05.987Z,76
2017-05-27T09:20:16.571Z,76
2017-05-27T09:21:26.888Z,76
2017-05-27T09:22:37.178Z,76
2017-05-27T09:23:47.609Z,76
2017-05-27T09:24:57.273Z,76
2017-05-27T09:26:07.810Z,76
2017-05-27T09:27:18.090Z,76
2017-05-27T09:28:28.441Z,80
2017-05-27T09:29:38.774Z,76
2017-05-27T09:30:48.435Z,76
2017-05-27T09:31:58.666Z,80
2017-05-27T09:33:08.955Z,80
2017-05-27T09:34:19.239Z,76
2017-05-27T09:35:29.526Z,80
2017-05-27T09:36:39.501Z,76
2017-05-27T09:37:50.048Z,80
2017-05-27T09:39:00.395Z,80
2017-05-27T09:40:10.683Z,80
2017-05-27T09:41:20.661Z,80
2017-05-27T09:42:30.946Z,80
2017-05-27T09:43:42.184Z,80
2017-05-27T09:44:52.477Z,80
2017-05-27T09:46:02.765Z,80
2017-05-27T09:47:12.751Z,84
2017-05-27T09:48:23.047Z,80
2017-05-27T09:49:33.269Z,80
2017-05-27T09:50:43.568Z,80
2017-05-27T09:51:53.852Z,80
2017-05-27T09:53:03.870Z,84
2017-05-27T09:54:13.841Z,80
2017-05-27T09:55:24.071Z,80
2017-05-27T09:56:34.358Z,84
2017-05-27T09:57:44.678Z,84
2017-05-27T09:58:54.336Z,80
2017-05-27T10:00:04.339Z,80
2017-05-27T10:01:14.894Z,84
2017-05-27T10:02:25.187Z,84
2017-05-27T10:03:35.162Z,84
2017-05-27T10:04:45.142Z,80
2017-05-27T10:05:55.171Z,80
2017-05-27T10:07:05.406Z,84
2017-05-27T10:08:15.417Z,80
2017-05-27T10:09:25.704Z,84
2017-05-27T10:10:35.675Z,84
2017-05-27T10:11:45.330Z,84
2017-05-27T10:12:55.883Z,84
2017-05-27T10:14:05.561Z,84
2017-05-27T10:15:15.858Z,84
2017-05-27T10:16:25.829Z,84
2017-05-27T10:17:36.111Z,80
2017-05-27T10:18:46.655Z,84
2017-05-27T10:19:56.993Z,84
2017-05-27T10:21:07.273Z,84
2017-05-27T10:22:17.301Z,84
2017-05-27T10:23:27.584Z,80
2017-05-27T10:24:38.127Z,84
2017-05-27T10:25:48.414Z,84
2017-05-27T10:26:58.709Z,84
2017-05-27T10:28:09.003Z,80
2017-05-27T10:29:19.295Z,80
2017-05-27T10:30:29.530Z,80
2017-05-27T10:31:39.500Z,80
2017-05-27T10:32:49.782Z,80
2017-05-27T10:34:00.064Z,80
2017-05-27T10:35:10.034Z,80
2017-05-27T10:36:20.258Z,80
2017-05-27T10:37:30.556Z,84
2017-05-27T10:38:40.831Z,80
2017-05-27T10:39:51.123Z,80
2017-05-27T10:41:01.410Z,80
2017-05-27T10:42:11.943Z,80
2017-05-27T10:43:21.923Z,80
2017-05-27T10:44:32.202Z,80
2017-05-27T10:45:42.490Z,76
2017-05-27T10:46:52.763Z,80
2017-05-27T10:48:02.988Z,76
2017-05-27T10:49:13.273Z,76
2017-05-27T10:50:23.557Z,80
2017-05-27T10:51:33.842Z,80
2017-05-27T10:52:44.129Z,80
2017-05-27T10:53:54.656Z,76
2017-05-27T10:55:04.934Z,76
2017-05-27T10:56:15.215Z,76
2017-05-27T10:57:25.211Z,76
2017-05-27T10:58:35.503Z,72
2017-05-27T10:59:46.051Z,76
2017-05-27T11:00:55.712Z,76
2017-05-27T11:02:05.991Z,76
2017-05-27T11:03:16.277Z,72
2017-05-27T11:04:26.563Z,72
2017-05-27T11:05:37.097Z,72
2017-05-27T11:06:47.078Z,76
2017-05-27T11:07:57.357Z,72
2017-05-27T11:09:07.649Z,72
2017-05-27T11:10:17.935Z,72
2017-05-27T11:11:28.477Z,72
2017-05-27T11:12:38.763Z,72
2017-05-27T11:13:48.421Z,68
2017-05-27T11:14:58.718Z,68
2017-05-27T11:16:09.004Z,72
2017-05-27T11:17:19.221Z,72
2017-05-27T11:18:29.498Z,72
2017-05-27T11:19:39.781Z,72
2017-05-27T11:20:50.065Z,68
2017-05-27T11:22:00.040Z,72
2017-05-27T11:23:10.283Z,68
2017-05-27T11:24:20.263Z,72
2017-05-27T11:25:30.560Z,72
2017-05-27T11:26:40.845Z,68
2017-05-27T11:27:51.155Z,68
2017-05-27T11:29:01.703Z,68
2017-05-27T11:30:11.680Z,68
2017-05-27T11:31:21.651Z,68
2017-05-27T11:32:31.938Z,68
2017-05-27T11:33:42.221Z,64
2017-05-27T11:34:52.756Z,64
2017-05-27T11:36:03.136Z,68
2017-05-27T11:37:13.435Z,68
2017-05-27T11:38:23.711Z,68
2017-05-27T11:39:33.690Z,64
2017-05-27T11:40:44.230Z,68
2017-05-27T11:41:54.515Z,68
2017-05-27T11:43:04.799Z,68
2017-05-27T11:44:14.764Z,68
2017-05-27T11:45:25.046Z,68
2017-05-27T11:46:35.576Z,64
2017-05-27T11:47:45.551Z,68
2017-05-27T11:48:55.837Z,64
2017-05-27T11:50:05.814Z,68
2017-05-27T11:51:15.799Z,64
2017-05-27T11:52:26.346Z,64
2017-05-27T11:53:36.621Z,64
2017-05-27T11:54:46.965Z,64
2017-05-27T11:55:56.933Z,68
2017-05-27T11:57:06.929Z,64
2017-05-27T11:58:17.151Z,64
2017-05-27T11:59:27.122Z,64
2017-05-27T12:00:37.414Z,64
2017-05-27T12:01:47.699Z,64
2017-05-27T12:02:57.991Z,64
2017-05-27T12:04:08.553Z,64
2017-05-27T12:05:19.085Z,64
2017-05-27T12:06:29.371Z,60
2017-05-27T12:07:39.344Z,64
2017-05-27T12:08:49.622Z,64
2017-05-27T12:10:00.146Z,64
2017-05-27T12:11:10.118Z,64
2017-05-27T12:12:20.421Z,64
2017-05-27T12:13:30.899Z,60
2017-05-27T12:14:41.196Z,64
2017-05-27T12:15:51.425Z,64
2017-05-27T12:17:01.705Z,64
2017-05-27T12:18:11.988Z,64
2017-05-27T12:19:22.270Z,64
2017-05-27T12:20:32.565Z,60
2017-05-27T12:21:43.107Z,60
2017-05-27T12:22:53.083Z,64
2017-05-27T12:24:03.373Z,64
2017-05-27T12:25:13.655Z,60
2017-05-27T12:26:23.935Z,60
2017-05-27T12:27:34.470Z,64
2017-05-27T12:28:44.750Z,60
2017-05-27T12:29:55.031Z,60
2017-05-27T12:31:05.317Z,60
2017-05-27T12:32:15.592Z,60
2017-05-27T12:33:25.828Z,60
2017-05-27T12:34:36.124Z,60
2017-05-27T12:35:46.093Z,60
2017-05-27T12:36:56.383Z,60
2017-05-27T12:38:06.364Z,60
2017-05-27T12:39:16.945Z,60
2017-05-27T12:40:26.920Z,60
2017-05-27T12:41:36.888Z,60
2017-05-27T12:42:47.171Z,60
2017-05-27T12:43:57.457Z,60
2017-05-27T12:45:07.993Z,60
2017-05-27T12:46:18.269Z,60
2017-05-27T12:47:28.572Z,60
2017-05-27T12:48:38.861Z,56
2017-05-27T12:49:49.153Z,56
2017-05-27T12:50:59.682Z,60
2017-05-27T12:52:10.029Z,60
2017-05-27T12:53:20.311Z,56
2017-05-27T12:54:30.295Z,56
2017-05-27T12:55:40.594Z,56
2017-05-27T12:56:51.124Z,60
2017-05-27T12:58:01.420Z,56
2017-05-27T12:59:11.399Z,56
2017-05-27T13:00:21.697Z,60
2017-05-27T13:01:31.988Z,56
2017-05-27T13:02:42.517Z,56
2017-05-27T13:03:52.800Z,56
2017-05-27T13:05:02.769Z,56
2017-05-27T13:06:13.073Z,56
2017-05-27T13:07:23.054Z,56
2017-05-27T13:08:33.594Z,56
2017-05-27T13:09:44.115Z,56
2017-05-27T13:10:54.087Z,56
2017-05-27T13:12:04.055Z,56
2017-05-27T13:13:14.354Z,56
2017-05-27T13:14:24.575Z,56
2017-05-27T13:15:34.543Z,56
2017-05-27T13:16:44.839Z,52
2017-05-27T13:17:55.116Z,52
2017-05-27T13:19:05.400Z,56
2017-05-27T13:20:15.935Z,52
2017-05-27T13:21:26.288Z,52
2017-05-27T13:22:36.563Z,52
2017-05-27T13:23:46.957Z,56
2017-05-27T13:24:57.258Z,52
2017-05-27T13:26:07.805Z,52
2017-05-27T13:27:18.092Z,52
2017-05-27T13:28:27.765Z,52
2017-05-27T13:29:38.051Z,52
2017-05-27T13:30:48.332Z,48
2017-05-27T13:31:58.880Z,52
2017-05-27T13:33:09.167Z,52
2017-05-27T13:34:19.144Z,48
2017-05-27T13:35:29.119Z,52
2017-05-27T13:36:39.406Z,52
2017-05-27T13:37:49.629Z,52
2017-05-27T13:39:00.068Z,48
2017-05-27T13:40:10.038Z,48
2017-05-27T13:41:20.008Z,52
2017-05-27T13:42:30.024Z,48
2017-05-27T13:43:40.573Z,48
2017-05-27T13:44:50.854Z,48
2017-05-27T13:46:00.840Z,52
2017-05-27T13:47:10.815Z,48
2017-05-27T13:48:21.097Z,52
2017-05-27T13:49:31.330Z,48
2017-05-27T13:50:41.635Z,48
2017-05-27T13:51:51.617Z,48
2017-05-27T13:53:01.924Z,48
2017-05-27T13:54:11.898Z,48
2017-05-27T13:55:22.580Z,48
2017-05-27T13:56:32.547Z,48
2017-05-27T13:57:42.828Z,48
2017-05-27T13:58:52.494Z,48
2017-05-27T14:00:02.620Z,48
2017-05-27T14:01:13.158Z,48
2017-05-27T14:02:23.443Z,48
2017-05-27T14:03:33.431Z,48
2017-05-27T14:04:43.714Z,44
2017-05-27T14:05:53.687Z,44
2017-05-27T14:07:03.611Z,44
2017-05-27T14:08:13.597Z,48
2017-05-27T14:09:23.570Z,48
2017-05-27T14:10:33.865Z,44
2017-05-27T14:11:43.832Z,44
2017-05-27T14:12:54.585Z,48
2017-05-27T14:14:04.869Z,48
2017-05-27T14:15:15.176Z,44
2017-05-27T14:16:25.149Z,44
2017-05-27T14:17:35.594Z,44
2017-05-27T14:18:45.824Z,44
2017-05-27T14:19:55.484Z,44
2017-05-27T14:21:05.790Z,44
2017-05-27T14:22:15.760Z,44
2017-05-27T14:23:25.731Z,44
2017-05-27T14:24:36.262Z,44
2017-05-27T14:25:46.553Z,40
2017-05-27T14:26:56.840Z,44
2017-05-27T14:28:06.810Z,44
2017-05-27T14:29:16.792Z,44
2017-05-27T14:30:26.714Z,40
2017-05-27T14:31:36.678Z,44
2017-05-27T14:32:46.971Z,40
2017-05-27T14:33:57.264Z,40
2017-05-27T14:35:07.598Z,44
2017-05-27T14:36:17.826Z,44
2017-05-27T14:37:27.813Z,40
2017-05-27T14:38:37.785Z,40
2017-05-27T14:39:47.770Z,44
2017-05-27T14:40:58.056Z,40
2017-05-27T14:42:08.604Z,40
2017-05-27T14:43:18.611Z,40
2017-05-27T14:44:28.917Z,40
2017-05-27T14:45:39.199Z,40
2017-05-27T14:46:49.552Z,40
2017-05-27T14:48:00.085Z,44
2017-05-27T14:49:10.380Z,40
2017-05-27T14:50:20.675Z,40
2017-05-27T14:51:30.988Z,40
2017-05-27T14:52:41.281Z,36
2017-05-27T14:53:51.921Z,40
2017-05-27T14:55:02.218Z,40
2017-05-27T14:56:12.199Z,40
2017-05-27T14:57:22.501Z,36
2017-05-27T14:58:32.796Z,40
2017-05-27T14:59:43.338Z,40
2017-05-27T15:00:53.010Z,36
2017-05-27T15:02:03.551Z,40
2017-05-27T15:03:13.231Z,40
2017-05-27T15:04:23.563Z,36
2017-05-27T15:05:34.089Z,36
2017-05-27T15:06:44.392Z,40
2017-05-27T15:07:54.670Z,36
2017-05-27T15:09:04.655Z,36
2017-05-27T15:10:14.315Z,40
2017-05-27T15:11:24.858Z,36
2017-05-27T15:12:34.845Z,36
2017-05-27T15:13:45.127Z,36
2017-05-27T15:14:55.103Z,40
2017-05-27T15:16:05.392Z,36
2017-05-27T15:17:15.945Z,36
2017-05-27T15:18:25.930Z,36
2017-05-27T15:19:35.652Z,36
2017-05-27T15:20:45.941Z,36
2017-05-27T15:21:56.247Z,36
2017-05-27T15:23:06.777Z,36
2017-05-27T15:24:17.077Z,32
2017-05-27T15:25:27.363Z,36
2017-05-27T15:26:37.648Z,36
2017-05-27T15:27:47.933Z,36
2017-05-27T15:28:58.458Z,36
2017-05-27T15:30:08.772Z,32
2017-05-27T15:31:19.056Z,36
2017-05-27T15:32:29.345Z,36
2017-05-27T15:33:39.652Z,32
2017-05-27T15:34:50.193Z,32
2017-05-27T15:36:00.499Z,36
2017-05-27T15:37:10.475Z,36
2017-05-27T15:38:20.755Z,32
2017-05-27T15:39:30.746Z,32
2017-05-27T15:40:41.280Z,36
2017-05-27T15:41:51.270Z,36
2017-05-27T15:43:01.574Z,32
2017-05-27T15:44:11.858Z,32
2017-05-27T15:45:22.147Z,36
2017-05-27T15:46:32.687Z,36
2017-05-27T15:47:42.981Z,32
2017-05-27T15:48:53.266Z,32
2017-05-27T15:50:03.564Z,32
2017-05-27T15:51:13.560Z,36
2017-05-27T15:52:23.788Z,32
2017-05-27T15:53:34.094Z,32
2017-05-27T15:54:44.384Z,32
2017-05-27T15:55:54.674Z,32
2017-05-27T15:57:04.335Z,32
2017-05-27T15:58:14.562Z,32
2017-05-27T15:59:24.846Z,32
2017-05-27T16:00:34.815Z,32
2017-05-27T16:01:45.106Z,28
2017-05-27T16:02:55.096Z,32
2017-05-27T16:04:05.644Z,32
2017-05-27T16:05:15.930Z,32
2017-05-27T16:06:26.214Z,32
2017-05-27T16:07:36.492Z,28
2017-05-27T16:08:47.000Z,32
2017-05-27T16:09:57.537Z,32
2017-05-27T16:11:07.524Z,32
2017-05-27T16:12:17.813Z,32
2017-05-27T16:13:27.489Z,28
2017-05-27T16:14:37.788Z,28
2017-05-27T16:15:47.706Z,32
2017-05-27T16:16:57.986Z,32
2017-05-27T16:18:08.280Z,28
2017-05-27T16:19:18.577Z,28
2017-05-27T16:20:28.861Z,28
2017-05-27T16:21:39.089Z,32
2017-05-27T16:22:49.386Z,32
2017-05-27T16:23:59.367Z,32
2017-05-27T16:25:09.657Z,28
2017-05-27T16:26:19.627Z,28
2017-05-27T16:27:29.863Z,28
2017-05-27T16:28:40.155Z,32
2017-05-27T16:29:50.435Z,32
2017-05-27T16:31:00.716Z,28
2017-05-27T16:32:10.687Z,28
2017-05-27T16:33:21.230Z,28
2017-05-27T16:34:31.530Z,28
2017-05-27T16:35:41.812Z,32
2017-05-27T16:36:51.837Z,28
2017-05-27T16:38:01.844Z,28
2017-05-27T16:39:12.377Z,28
2017-05-27T16:40:22.681Z,28
2017-05-27T16:41:32.966Z,28
2017-05-27T16:42:43.271Z,24